• Join FlightAware (Why Join?)
  • Login
  • US Flag 
01:35AM EDT


 

Airport Tracker/Info


-or-


 

Live Flight TrackerFlight Track Log ✈ EGF3275 ✈ 03-May-2012 ✈ KDFW - MMLO / BJX

Flight Track Log - Related Links

Times and Time Zones

All times are in EDT time to prevent confusion due to time zone crossing. See the EGF3275 flight status page for this flight to view local times or setup timezone preferences in your user account.

Time Position Orientation Groundspeed Altitude Reporting Facility
EDT Latitude Longitude Course Direction KTS MPH feet Rate Location/Type
11:08AM 32.8724 -97.0333 239° Southwest  Level FlightAware Approximate
11:09AM 32.8636 -97.0508 182° South 163 188 2,300  Level FAA TRACON SMA TRACON (SMA)
11:09AM 32.8275 -97.0522 183° South 190 219 3,900 2,100 Climbing FAA TRACON SMA TRACON (SMA)
11:10AM 32.7914 -97.0542 193° South 215 247 5,100 1,620 Climbing FAA TRACON SMA TRACON (SMA)
11:11AM 32.7442 -97.0672 192° South 256 295 6,100 2,040 Climbing FAA TRACON SMA TRACON (SMA)
11:11AM 32.6933 -97.0806 191° South 269 310 7,800 2,220 Climbing FAA TRACON SMA TRACON (SMA)
11:12AM 32.6481 -97.0911 192° South 270 311 9,100 2,160 Climbing FAA TRACON SMA TRACON (SMA)
11:13AM 32.5956 -97.1044 192° South 278 320 10,700 1,860 Climbing FAA TRACON SMA TRACON (SMA)
11:13AM 32.5400 -97.1183 192° South 297 342 11,600 1,260 Climbing FAA TRACON SMA TRACON (SMA)
11:14AM 32.4875 -97.1317 192° South 314 361 12,500 1,440 Climbing FAA TRACON SMA TRACON (SMA)
11:15AM 32.4261 -97.1475 192° South 327 376 13,500 1,680 Climbing FAA TRACON SMA TRACON (SMA)
11:15AM 32.3703 -97.1614 193° South 333 383 14,700 1,740 Climbing FAA TRACON SMA TRACON (SMA)
11:16AM 32.3069 -97.1783 189° South 337 388 15,900 1,800 Climbing FAA TRACON SMA TRACON (SMA)
11:17AM 32.2422 -97.1900 186° South 340 391 17,200 1,800 Climbing FAA TRACON SMA TRACON (SMA)
11:17AM 32.1761 -97.1983 187° South 344 396 18,300 1,620 Climbing FAA TRACON SMA TRACON (SMA)
11:18AM 32.1167 -97.2064 194° South 349 402 19,400 1,620 Climbing FAA TRACON SMA TRACON (SMA)
11:19AM 32.0514 -97.2258 197° South 349 402 20,500 1,680 Climbing FAA TRACON SMA TRACON (SMA)
11:19AM 31.9869 -97.2497 198° South 351 404 21,700 1,500 Climbing FAA TRACON SMA TRACON (SMA)
11:20AM 31.9433 -97.2667 199° South 354 407 22,500 1,380 Climbing FAA TRACON SMA TRACON (SMA)
11:21AM 31.7875 -97.3303 198° South 363 418 24,900 1,440 Climbing Fort Worth Center
11:23AM 31.5883 -97.4053 198° South 369 425 27,600 1,380 Climbing Houston Center
11:24AM 31.4908 -97.4433 197° South 374 430 29,000 1,380 Climbing Houston Center
11:25AM 31.3892 -97.4789 197° South 379 436 30,400 1,320 Climbing Houston Center
11:26AM 31.2875 -97.5164 198° South 379 436 31,700 1,260 Climbing Houston Center
11:27AM 31.1858 -97.5542 198° South 379 436 33,000 1,200 Climbing Houston Center
11:28AM 31.0819 -97.5942 197° South 390 449 34,200 1,200 Climbing Houston Center
11:29AM 30.9781 -97.6314 198° South 390 449 35,500 900 Climbing Houston Center
11:30AM 30.8742 -97.6711 197° South 390 449 36,000 240 Climbing Houston Center
11:31AM 30.7808 -97.7042 198° South 390 449 36,000  Level Houston Center
11:32AM 30.6792 -97.7417 197° South 390 449 36,000  Level Houston Center
11:33AM 30.5753 -97.7789 212° Southwest 390 449 36,000  Level Houston Center
11:34AM 30.4869 -97.8433 211° Southwest 377 434 36,000  Level Houston Center
11:35AM 30.3964 -97.9075 214° Southwest 384 442 36,000  Level Houston Center
11:36AM 30.3119 -97.9744 213° Southwest 379 436 36,000  Level Houston Center
11:37AM 30.2167 -98.0453 212° Southwest 379 436 36,000  Level Houston Center
11:38AM 30.1369 -98.1028 212° Southwest 379 436 36,000  Level Houston Center
11:39AM 30.0417 -98.1711 214° Southwest 379 436 36,000  Level Houston Center
11:40AM 29.9639 -98.2308 212° Southwest 379 436 36,000  Level Houston Center
11:41AM 29.8686 -98.2989 213° Southwest 379 436 36,000  Level Houston Center
11:42AM 29.7908 -98.3561 214° Southwest 379 436 36,000  Level Houston Center
11:43AM 29.6997 -98.4267 208° Southwest 374 430 36,000  Level Houston Center
11:44AM 29.6136 -98.4783 201° Southwest 379 436 36,000  Level Houston Center
11:45AM 29.5156 -98.5219 200° South 379 436 36,000  Level Houston Center
11:46AM 29.4047 -98.5694 202° Southwest 392 451 36,000  Level Houston Center
11:47AM 29.3086 -98.6131 201° Southwest 380 437 36,000  Level Houston Center
11:48AM 29.2103 -98.6564 202° Southwest 380 437 36,000  Level Houston Center
11:49AM 29.1164 -98.7000 201° Southwest 380 437 36,000  Level Houston Center
11:50AM 29.0181 -98.7433 201° Southwest 380 437 36,000 120 Level Houston Center
11:51AM 28.9178 -98.7864 203° Southwest 380 437 36,300 480 Climbing Houston Center
11:52AM 28.8217 -98.8319 200° South 380 437 37,000 300 Climbing Houston Center
11:53AM 28.7256 -98.8728 199° South 380 437 37,000  Level Houston Center
11:54AM 28.6361 -98.9069 202° Southwest 380 437 37,000  Level Houston Center
11:55AM 28.5356 -98.9522 202° Southwest 380 437 37,000  Level Houston Center
11:56AM 28.4372 -98.9975 201° Southwest 380 437 37,000  Level Houston Center
11:57AM 28.3392 -99.0403 201° Southwest 380 437 37,000  Level Houston Center
11:58AM 28.2408 -99.0828 202° Southwest 380 437 37,000  Level Houston Center
11:59AM 28.1425 -99.1278 202° Southwest 380 437 37,000  Level Houston Center
12:00PM 28.0439 -99.1728 210° Southwest 380 437 37,000  Level Houston Center
12:01PM 27.9489 -99.2342 210° Southwest 387 445 37,000  Level Houston Center
12:02PM 27.8578 -99.2936 210° Southwest 387 445 37,000  Level Houston Center
12:03PM 27.7647 -99.3550 210° Southwest 387 445 37,000  Level Houston Center
12:04PM 27.6717 -99.4164 209° Southwest 392 451 37,000  Level Houston Center
12:05PM 27.5786 -99.4753 212° Southwest 392 451 37,000 -60 Level Houston Center
12:06PM 27.4872 -99.5389 197° South 392 451 36,900 -120 Descending Houston Center
12:14PM 26.7762 -99.7756 195° South  Level FlightAware Approximate
12:15PM 26.6788 -99.8047 195° South  Level FlightAware Approximate
12:16PM 26.5813 -99.8338 195° South  Level FlightAware Approximate
12:17PM 26.4838 -99.8629 195° South  Level FlightAware Approximate
12:18PM 26.3863 -99.8919 195° South  Level FlightAware Approximate
12:19PM 26.2888 -99.9209 195° South  Level FlightAware Approximate
12:20PM 26.1912 -99.9498 195° South  Level FlightAware Approximate
12:21PM 26.0937 -99.9786 195° South  Level FlightAware Approximate
12:22PM 25.9962 -100.0074 195° South  Level FlightAware Approximate
12:23PM 25.8987 -100.0362 195° South  Level FlightAware Approximate
12:24PM 25.8011 -100.0649 220° Southwest  Level FlightAware Approximate
12:25PM 25.7237 -100.1366 193° South  Level FlightAware Approximate
12:26PM 25.6255 -100.1624 193° South  Level FlightAware Approximate
12:27PM 25.5273 -100.1880 193° South  Level FlightAware Approximate
12:28PM 25.4291 -100.2137 193° South  Level FlightAware Approximate
12:29PM 25.3309 -100.2393 194° South  Level FlightAware Approximate
12:30PM 25.2328 -100.2655 194° South  Level FlightAware Approximate
12:31PM 25.1348 -100.2917 194° South  Level FlightAware Approximate
12:32PM 25.0367 -100.3178 195° South  Level FlightAware Approximate
12:33PM 24.9391 -100.3464 195° South  Level FlightAware Approximate
12:34PM 24.8416 -100.3748 195° South  Level FlightAware Approximate
12:35PM 24.7440 -100.4033 195° South  Level FlightAware Approximate
12:36PM 24.6465 -100.4316 195° South  Level FlightAware Approximate
12:37PM 24.5489 -100.4600 195° South  Level FlightAware Approximate
12:38PM 24.4514 -100.4883 195° South  Level FlightAware Approximate
12:39PM 24.3538 -100.5165 195° South  Level FlightAware Approximate
12:40PM 24.2562 -100.5447 195° South  Level FlightAware Approximate
12:41PM 24.1587 -100.5729 195° South  Level FlightAware Approximate
12:42PM 24.0611 -100.6010 195° South  Level FlightAware Approximate
12:43PM 23.9635 -100.6291 195° South  Level FlightAware Approximate
12:44PM 23.8659 -100.6572 195° South  Level FlightAware Approximate
12:45PM 23.7683 -100.6851 195° South  Level FlightAware Approximate
12:46PM 23.6707 -100.7131 195° South  Level FlightAware Approximate
12:47PM 23.5731 -100.7410 195° South  Level FlightAware Approximate
12:48PM 23.4755 -100.7689 195° South  Level FlightAware Approximate
12:49PM 23.3779 -100.7967 195° South  Level FlightAware Approximate
12:50PM 23.2802 -100.8245 195° South  Level FlightAware Approximate
12:51PM 23.1826 -100.8522 195° South  Level FlightAware Approximate
12:52PM 23.0850 -100.8800 200° South  Level FlightAware Approximate
12:53PM 22.9942 -100.9167 194° South  Level FlightAware Approximate
12:54PM 22.8964 -100.9438 165° South  Level FlightAware Approximate
12:55PM 22.8003 -100.9167 180° South  Level FlightAware Approximate
12:56PM 22.6994 -100.9167 197° South  Level FlightAware Approximate
12:57PM 22.6027 -100.9480 197° South  Level FlightAware Approximate
12:58PM 22.5060 -100.9793 143° Southeast  Level FlightAware Approximate
12:59PM 22.4297 -100.9167 200° South  Level FlightAware Approximate
01:00PM 22.3346 -100.9532 162° South  Level FlightAware Approximate
01:01PM 22.2411 -100.9211 205° Southwest  Level FlightAware Approximate
01:02PM 22.1495 -100.9669 202° Southwest  Level FlightAware Approximate
01:03PM 22.0559 -101.0073 202° Southwest  Level FlightAware Approximate
01:04PM 21.9622 -101.0478 206° Southwest  Level FlightAware Approximate
01:05PM 21.8714 -101.0948 201° Southwest  Level FlightAware Approximate
01:06PM 21.7774 -101.1344 199° South  Level FlightAware Approximate
01:07PM 21.6823 -101.1704 202° Southwest  Level FlightAware Approximate
01:08PM 21.5884 -101.2104 202° Southwest  Level FlightAware Approximate